sensor_id;sensor_type;location;lat;lon;timestamp;pressure;altitude;pressure_sealevel;temperature;humidity
74975;BME280;64061;50.836;19.138;2022-12-07T00:00:40;97974.78;;;19.93;55.80
74975;BME280;64061;50.836;19.138;2022-12-07T00:03:46;97977.22;;;19.95;56.70
74975;BME280;64061;50.836;19.138;2022-12-07T00:06:52;97961.00;;;19.98;58.27
74975;BME280;64061;50.836;19.138;2022-12-07T00:09:56;97964.53;;;19.99;59.33
74975;BME280;64061;50.836;19.138;2022-12-07T00:13:02;97971.84;;;20.03;60.16
74975;BME280;64061;50.836;19.138;2022-12-07T00:16:07;97961.22;;;20.02;59.72
74975;BME280;64061;50.836;19.138;2022-12-07T00:19:14;97962.31;;;20.01;60.34
74975;BME280;64061;50.836;19.138;2022-12-07T00:22:17;97968.09;;;19.99;59.17
74975;BME280;64061;50.836;19.138;2022-12-07T00:25:21;97960.19;;;19.98;59.06
74975;BME280;64061;50.836;19.138;2022-12-07T00:28:26;97965.66;;;19.98;58.40
74975;BME280;64061;50.836;19.138;2022-12-07T00:31:31;97969.84;;;19.95;58.12
74975;BME280;64061;50.836;19.138;2022-12-07T00:34:37;97957.25;;;19.94;57.66
74975;BME280;64061;50.836;19.138;2022-12-07T00:37:41;97960.28;;;19.92;57.51
74975;BME280;64061;50.836;19.138;2022-12-07T00:40:54;97956.97;;;19.96;57.26
74975;BME280;64061;50.836;19.138;2022-12-07T00:44:00;97957.03;;;19.90;57.50
74975;BME280;64061;50.836;19.138;2022-12-07T00:47:04;97948.31;;;19.88;57.36
74975;BME280;64061;50.836;19.138;2022-12-07T00:50:08;97952.38;;;19.91;56.77
74975;BME280;64061;50.836;19.138;2022-12-07T00:53:12;97952.38;;;19.91;56.79
74975;BME280;64061;50.836;19.138;2022-12-07T00:56:17;97957.56;;;19.92;56.57
74975;BME280;64061;50.836;19.138;2022-12-07T00:59:24;97958.06;;;19.95;56.73
74975;BME280;64061;50.836;19.138;2022-12-07T01:02:27;97955.31;;;19.95;56.24
74975;BME280;64061;50.836;19.138;2022-12-07T01:05:31;97955.03;;;19.96;56.14
74975;BME280;64061;50.836;19.138;2022-12-07T01:08:34;97948.75;;;19.96;56.11
74975;BME280;64061;50.836;19.138;2022-12-07T01:11:38;97945.50;;;19.93;55.76
74975;BME280;64061;50.836;19.138;2022-12-07T01:14:43;97949.84;;;19.95;55.60
74975;BME280;64061;50.836;19.138;2022-12-07T01:17:47;97943.56;;;19.94;55.66
74975;BME280;64061;50.836;19.138;2022-12-07T01:20:57;97946.81;;;19.96;55.52
74975;BME280;64061;50.836;19.138;2022-12-07T01:24:03;97948.22;;;19.93;55.93
74975;BME280;64061;50.836;19.138;2022-12-07T01:27:08;97940.63;;;19.90;55.99
74975;BME280;64061;50.836;19.138;2022-12-07T01:30:13;97944.97;;;19.91;56.12
74975;BME280;64061;50.836;19.138;2022-12-07T01:33:17;97942.84;;;19.88;56.06
74975;BME280;64061;50.836;19.138;2022-12-07T01:36:23;97941.72;;;19.89;55.36
74975;BME280;64061;50.836;19.138;2022-12-07T01:39:28;97943.44;;;19.85;56.22
74975;BME280;64061;50.836;19.138;2022-12-07T01:42:32;97948.91;;;19.85;56.18
74975;BME280;64061;50.836;19.138;2022-12-07T01:45:41;97937.66;;;19.87;56.33
74975;BME280;64061;50.836;19.138;2022-12-07T01:48:44;97932.00;;;19.83;56.58
74975;BME280;64061;50.836;19.138;2022-12-07T01:51:49;97940.22;;;19.83;56.57
74975;BME280;64061;50.836;19.138;2022-12-07T01:54:59;97935.84;;;19.82;56.23
74975;BME280;64061;50.836;19.138;2022-12-07T01:58:07;97930.97;;;19.79;56.25
74975;BME280;64061;50.836;19.138;2022-12-07T02:01:14;97934.50;;;19.80;56.12
74975;BME280;64061;50.836;19.138;2022-12-07T02:04:18;97938.66;;;19.77;56.94
74975;BME280;64061;50.836;19.138;2022-12-07T02:07:23;97927.72;;;19.77;56.95
74975;BME280;64061;50.836;19.138;2022-12-07T02:10:29;97930.16;;;19.79;57.12
74975;BME280;64061;50.836;19.138;2022-12-07T02:13:36;97933.41;;;19.81;57.24
74975;BME280;64061;50.836;19.138;2022-12-07T02:16:55;97922.03;;;19.87;56.35
74975;BME280;64061;50.836;19.138;2022-12-07T02:20:25;97922.56;;;19.89;55.73
74975;BME280;64061;50.836;19.138;2022-12-07T02:27:39;97925.09;;;19.86;55.52
74975;BME280;64061;50.836;19.138;2022-12-07T02:30:52;97922.03;;;19.87;54.90
74975;BME280;64061;50.836;19.138;2022-12-07T02:34:05;97910.00;;;19.88;55.38
74975;BME280;64061;50.836;19.138;2022-12-07T02:37:22;97914.88;;;19.91;54.29
74975;BME280;64061;50.836;19.138;2022-12-07T02:40:39;97911.31;;;19.91;54.70
74975;BME280;64061;50.836;19.138;2022-12-07T02:43:49;97914.06;;;19.91;54.57
74975;BME280;64061;50.836;19.138;2022-12-07T02:46:59;97912.13;;;19.91;54.19
74975;BME280;64061;50.836;19.138;2022-12-07T02:50:07;97907.25;;;19.88;54.39
74975;BME280;64061;50.836;19.138;2022-12-07T02:53:32;97904.13;;;19.95;53.95
74975;BME280;64061;50.836;19.138;2022-12-07T02:56:44;97903.41;;;19.89;54.00
74975;BME280;64061;50.836;19.138;2022-12-07T03:00:00;97903.41;;;19.89;54.08
74975;BME280;64061;50.836;19.138;2022-12-07T03:03:12;97900.97;;;19.88;54.42
74975;BME280;64061;50.836;19.138;2022-12-07T03:06:22;97893.88;;;19.87;54.60
74975;BME280;64061;50.836;19.138;2022-12-07T03:09:39;97900.75;;;19.84;54.09
74975;BME280;64061;50.836;19.138;2022-12-07T03:12:55;97901.56;;;19.85;54.22
74975;BME280;64061;50.836;19.138;2022-12-07T03:16:10;97897.53;;;19.82;54.83
74975;BME280;64061;50.836;19.138;2022-12-07T03:19:21;97897.53;;;19.82;55.04
74975;BME280;64061;50.836;19.138;2022-12-07T03:22:31;97891.53;;;19.80;54.69
74975;BME280;64061;50.836;19.138;2022-12-07T03:25:39;97888.00;;;19.80;55.20
74975;BME280;64061;50.836;19.138;2022-12-07T03:28:50;97889.91;;;19.79;55.45
74975;BME280;64061;50.836;19.138;2022-12-07T03:32:00;97890.22;;;19.78;55.52
74975;BME280;64061;50.836;19.138;2022-12-07T03:35:14;97884.75;;;19.78;55.71
74975;BME280;64061;50.836;19.138;2022-12-07T03:38:29;97884.75;;;19.78;55.48
74975;BME280;64061;50.836;19.138;2022-12-07T03:41:39;97875.81;;;19.72;55.17
74975;BME280;64061;50.836;19.138;2022-12-07T03:44:47;97879.06;;;19.74;55.04
74975;BME280;64061;50.836;19.138;2022-12-07T03:47:59;97874.38;;;19.75;54.68
74975;BME280;64061;50.836;19.138;2022-12-07T03:51:16;97868.69;;;19.71;54.14
74975;BME280;64061;50.836;19.138;2022-12-07T03:54:29;97867.72;;;19.67;53.81
74975;BME280;64061;50.836;19.138;2022-12-07T03:57:38;97874.81;;;19.68;53.72
74975;BME280;64061;50.836;19.138;2022-12-07T04:00:46;97863.84;;;19.68;53.67
74975;BME280;64061;50.836;19.138;2022-12-07T04:03:51;97864.66;;;19.69;53.39
74975;BME280;64061;50.836;19.138;2022-12-07T04:06:56;97870.97;;;19.69;52.84
74975;BME280;64061;50.836;19.138;2022-12-07T04:10:00;97870.16;;;19.69;52.91
74975;BME280;64061;50.836;19.138;2022-12-07T04:13:04;97864.38;;;19.70;52.48
74975;BME280;64061;50.836;19.138;2022-12-07T04:16:07;97871.78;;;19.70;52.54
74975;BME280;64061;50.836;19.138;2022-12-07T04:19:11;97870.16;;;19.69;52.14
74975;BME280;64061;50.836;19.138;2022-12-07T04:22:17;97872.59;;;19.70;52.12
74975;BME280;64061;50.836;19.138;2022-12-07T04:25:21;97870.97;;;19.69;51.96
74975;BME280;64061;50.836;19.138;2022-12-07T04:28:25;97870.16;;;19.69;51.92
74975;BME280;64061;50.836;19.138;2022-12-07T04:31:29;97863.03;;;19.68;52.20
74975;BME280;64061;50.836;19.138;2022-12-07T04:34:32;97866.59;;;19.68;52.41
74975;BME280;64061;50.836;19.138;2022-12-07T04:37:38;97866.28;;;19.70;52.18
74975;BME280;64061;50.836;19.138;2022-12-07T04:40:41;97861.13;;;19.68;52.41
74975;BME280;64061;50.836;19.138;2022-12-07T04:43:45;97853.22;;;19.67;52.62
74975;BME280;64061;50.836;19.138;2022-12-07T04:46:49;97850.19;;;19.68;52.77
74975;BME280;64061;50.836;19.138;2022-12-07T04:49:53;97855.94;;;19.67;52.59
74975;BME280;64061;50.836;19.138;2022-12-07T04:52:58;97851.28;;;19.67;52.00
74975;BME280;64061;50.836;19.138;2022-12-07T04:56:01;97854.31;;;19.66;52.71
74975;BME280;64061;50.836;19.138;2022-12-07T04:59:05;97857.88;;;19.66;53.23
74975;BME280;64061;50.836;19.138;2022-12-07T05:02:09;97848.03;;;19.65;52.79
74975;BME280;64061;50.836;19.138;2022-12-07T05:05:13;97849.16;;;19.64;52.90
74975;BME280;64061;50.836;19.138;2022-12-07T05:08:19;97855.44;;;19.65;53.08
74975;BME280;64061;50.836;19.138;2022-12-07T05:11:22;97851.38;;;19.62;53.22
74975;BME280;64061;50.836;19.138;2022-12-07T05:14:42;97854.69;;;19.59;53.47
74975;BME280;64061;50.836;19.138;2022-12-07T05:17:46;97852.47;;;19.61;53.69
74975;BME280;64061;50.836;19.138;2022-12-07T05:20:49;97852.78;;;19.60;53.92
74975;BME280;64061;50.836;19.138;2022-12-07T05:23:55;97853.59;;;19.60;53.94
74975;BME280;64061;50.836;19.138;2022-12-07T05:26:58;97849.22;;;19.59;54.03
74975;BME280;64061;50.836;19.138;2022-12-07T05:30:02;97842.94;;;19.58;54.14
74975;BME280;64061;50.836;19.138;2022-12-07T05:33:06;97852.25;;;19.57;54.48
74975;BME280;64061;50.836;19.138;2022-12-07T05:36:10;97853.91;;;19.58;54.71
74975;BME280;64061;50.836;19.138;2022-12-07T05:39:15;97861.81;;;19.60;54.85
74975;BME280;64061;50.836;19.138;2022-12-07T05:42:19;97869.50;;;19.58;54.75
74975;BME280;64061;50.836;19.138;2022-12-07T05:45:22;97861.28;;;19.58;54.48
74975;BME280;64061;50.836;19.138;2022-12-07T05:48:26;97865.47;;;19.55;53.58
74975;BME280;64061;50.836;19.138;2022-12-07T05:51:30;97863.84;;;19.54;53.62
74975;BME280;64061;50.836;19.138;2022-12-07T05:54:35;97874.47;;;19.56;53.49
74975;BME280;64061;50.836;19.138;2022-12-07T05:57:38;97868.50;;;19.54;53.37
74975;BME280;64061;50.836;19.138;2022-12-07T06:01:02;97884.38;;;19.52;52.81
74975;BME280;64061;50.836;19.138;2022-12-07T06:04:05;97869.59;;;19.53;53.10
74975;BME280;64061;50.836;19.138;2022-12-07T06:07:09;97880.53;;;19.53;52.79
74975;BME280;64061;50.836;19.138;2022-12-07T06:10:16;97883.78;;;19.55;52.45
74975;BME280;64061;50.836;19.138;2022-12-07T06:13:19;97883.78;;;19.55;52.11
74975;BME280;64061;50.836;19.138;2022-12-07T06:16:22;97881.56;;;19.57;51.87
74975;BME280;64061;50.836;19.138;2022-12-07T06:19:25;97880.44;;;19.58;51.43
74975;BME280;64061;50.836;19.138;2022-12-07T06:22:29;97887.53;;;19.59;51.37
74975;BME280;64061;50.836;19.138;2022-12-07T06:25:33;97878.72;;;19.62;51.40
74975;BME280;64061;50.836;19.138;2022-12-07T06:28:37;97885.31;;;19.61;51.70
74975;BME280;64061;50.836;19.138;2022-12-07T06:31:40;97888.03;;;19.61;51.59
74975;BME280;64061;50.836;19.138;2022-12-07T06:34:44;97893.53;;;19.61;51.58
74975;BME280;64061;50.836;19.138;2022-12-07T06:37:49;97891.59;;;19.62;51.57
74975;BME280;64061;50.836;19.138;2022-12-07T06:40:54;97895.16;;;19.62;51.42
74975;BME280;64061;50.836;19.138;2022-12-07T06:43:57;97895.44;;;19.61;51.74
74975;BME280;64061;50.836;19.138;2022-12-07T06:47:01;97883.88;;;19.50;52.58
74975;BME280;64061;50.836;19.138;2022-12-07T06:50:26;97897.69;;;19.40;53.46
74975;BME280;64061;50.836;19.138;2022-12-07T06:53:30;97896.38;;;19.37;53.45
74975;BME280;64061;50.836;19.138;2022-12-07T06:56:35;97904.50;;;19.42;53.79
74975;BME280;64061;50.836;19.138;2022-12-07T06:59:39;97900.03;;;19.46;54.41
74975;BME280;64061;50.836;19.138;2022-12-07T07:02:42;97904.06;;;19.54;55.06
74975;BME280;64061;50.836;19.138;2022-12-07T07:05:46;97900.84;;;19.47;55.16
74975;BME280;64061;50.836;19.138;2022-12-07T07:08:50;97904.78;;;19.41;55.64
74975;BME280;64061;50.836;19.138;2022-12-07T07:11:55;97898.75;;;19.44;55.89
74975;BME280;64061;50.836;19.138;2022-12-07T07:14:59;97908.06;;;19.43;55.96
74975;BME280;64061;50.836;19.138;2022-12-07T07:18:03;97907.53;;;19.41;56.03
74975;BME280;64061;50.836;19.138;2022-12-07T07:21:09;97915.44;;;19.42;56.33
74975;BME280;64061;50.836;19.138;2022-12-07T07:24:12;97908.53;;;19.45;56.92
74975;BME280;64061;50.836;19.138;2022-12-07T07:27:17;97906.56;;;19.50;56.99
74975;BME280;64061;50.836;19.138;2022-12-07T07:30:21;97913.06;;;19.54;57.59
74975;BME280;64061;50.836;19.138;2022-12-07T07:33:25;97906.38;;;19.61;57.78
74975;BME280;64061;50.836;19.138;2022-12-07T07:36:28;97907.41;;;19.65;57.74
74975;BME280;64061;50.836;19.138;2022-12-07T07:39:32;97921.84;;;19.70;57.69
74975;BME280;64061;50.836;19.138;2022-12-07T07:42:37;97915.44;;;19.75;57.35
74975;BME280;64061;50.836;19.138;2022-12-07T07:45:40;97909.66;;;19.76;57.73
74975;BME280;64061;50.836;19.138;2022-12-07T07:48:44;97917.28;;;19.79;57.70
74975;BME280;64061;50.836;19.138;2022-12-07T07:51:48;97909.06;;;19.79;57.37
74975;BME280;64061;50.836;19.138;2022-12-07T07:54:52;97915.66;;;19.78;57.13
74975;BME280;64061;50.836;19.138;2022-12-07T07:57:57;97919.22;;;19.79;56.70
74975;BME280;64061;50.836;19.138;2022-12-07T08:01:03;97924.38;;;19.80;56.35
74975;BME280;64061;50.836;19.138;2022-12-07T08:04:07;97923.06;;;19.78;56.34
74975;BME280;64061;50.836;19.138;2022-12-07T08:07:11;97927.72;;;19.77;56.21
74975;BME280;64061;50.836;19.138;2022-12-07T08:10:15;97924.47;;;19.75;55.65
74975;BME280;64061;50.836;19.138;2022-12-07T08:13:20;97926.09;;;19.76;55.35
74975;BME280;64061;50.836;19.138;2022-12-07T08:16:32;97929.94;;;19.75;55.31
74975;BME280;64061;50.836;19.138;2022-12-07T08:19:35;97920.63;;;19.76;55.44
74975;BME280;64061;50.836;19.138;2022-12-07T08:22:39;97935.63;;;19.79;55.19
74975;BME280;64061;50.836;19.138;2022-12-07T08:25:42;97934.00;;;19.78;55.11
74975;BME280;64061;50.836;19.138;2022-12-07T08:28:47;97930.16;;;19.79;55.14
74975;BME280;64061;50.836;19.138;2022-12-07T08:31:51;97929.34;;;19.78;55.03
74975;BME280;64061;50.836;19.138;2022-12-07T08:34:54;97929.34;;;19.78;54.98
74975;BME280;64061;50.836;19.138;2022-12-07T08:37:58;97930.44;;;19.77;54.75
74975;BME280;64061;50.836;19.138;2022-12-07T08:41:04;97933.19;;;19.77;54.65
74975;BME280;64061;50.836;19.138;2022-12-07T08:44:09;97947.69;;;19.78;54.30
74975;BME280;64061;50.836;19.138;2022-12-07T08:47:13;97937.84;;;19.77;54.76
74975;BME280;64061;50.836;19.138;2022-12-07T08:50:17;97945.25;;;19.76;54.38
74975;BME280;64061;50.836;19.138;2022-12-07T08:53:21;97941.19;;;19.74;54.05
74975;BME280;64061;50.836;19.138;2022-12-07T08:56:26;97939.84;;;19.71;53.83
74975;BME280;64061;50.836;19.138;2022-12-07T08:59:33;97936.00;;;19.72;53.77
74975;BME280;64061;50.836;19.138;2022-12-07T09:02:39;97936.94;;;19.68;53.71
74975;BME280;64061;50.836;19.138;2022-12-07T09:05:43;97945.13;;;19.68;53.72
74975;BME280;64061;50.836;19.138;2022-12-07T09:08:50;97939.13;;;19.66;53.49
74975;BME280;64061;50.836;19.138;2022-12-07T09:11:57;97937.28;;;19.61;53.72
74975;BME280;64061;50.836;19.138;2022-12-07T09:15:02;97935.38;;;19.62;53.30
74975;BME280;64061;50.836;19.138;2022-12-07T09:18:06;97929.69;;;19.58;53.51
74975;BME280;64061;50.836;19.138;2022-12-07T09:21:10;97934.34;;;19.57;53.57
74975;BME280;64061;50.836;19.138;2022-12-07T09:24:13;97924.53;;;19.56;53.21
74975;BME280;64061;50.836;19.138;2022-12-07T09:27:17;97912.78;;;19.56;52.82
74975;BME280;64061;50.836;19.138;2022-12-07T09:30:22;97926.66;;;19.60;52.32
74975;BME280;64061;50.836;19.138;2022-12-07T09:33:26;97923.09;;;19.59;52.53
74975;BME280;64061;50.836;19.138;2022-12-07T09:36:29;97925.84;;;19.59;52.56
74975;BME280;64061;50.836;19.138;2022-12-07T09:39:32;97921.19;;;19.60;52.72
74975;BME280;64061;50.836;19.138;2022-12-07T09:42:37;97924.13;;;19.63;52.89
74975;BME280;64061;50.836;19.138;2022-12-07T09:45:44;97910.97;;;19.65;53.12
74975;BME280;64061;50.836;19.138;2022-12-07T09:48:50;97912.88;;;19.65;53.09
74975;BME280;64061;50.836;19.138;2022-12-07T09:52:02;97909.75;;;19.71;53.57
74975;BME280;64061;50.836;19.138;2022-12-07T09:55:23;97908.56;;;19.77;53.93
74975;BME280;64061;50.836;19.138;2022-12-07T09:58:31;97907.56;;;20.01;53.59
74975;BME280;64061;50.836;19.138;2022-12-07T10:01:39;97899.97;;;20.25;52.91
74975;BME280;64061;50.836;19.138;2022-12-07T10:04:43;97904.56;;;20.43;53.13
74975;BME280;64061;50.836;19.138;2022-12-07T10:07:48;97902.50;;;20.62;52.86
74975;BME280;64061;50.836;19.138;2022-12-07T10:10:54;97901.22;;;20.82;52.71
74975;BME280;64061;50.836;19.138;2022-12-07T10:14:11;97896.28;;;21.07;52.38
74975;BME280;64061;50.836;19.138;2022-12-07T10:17:47;97894.22;;;21.26;51.93
74975;BME280;64061;50.836;19.138;2022-12-07T10:21:05;97896.28;;;21.43;52.10
74975;BME280;64061;50.836;19.138;2022-12-07T10:24:14;97887.78;;;21.53;51.99
74975;BME280;64061;50.836;19.138;2022-12-07T10:27:20;97903.84;;;21.68;52.07
74975;BME280;64061;50.836;19.138;2022-12-07T10:30:29;97896.16;;;21.79;51.77
74975;BME280;64061;50.836;19.138;2022-12-07T10:33:37;97895.88;;;21.89;51.37
74975;BME280;64061;50.836;19.138;2022-12-07T10:39:56;97898.75;;;22.06;51.34
74975;BME280;64061;50.836;19.138;2022-12-07T10:43:02;97887.28;;;22.13;50.85
74975;BME280;64061;50.836;19.138;2022-12-07T10:46:40;97887.03;;;22.23;50.86
74975;BME280;64061;50.836;19.138;2022-12-07T10:50:12;97891.84;;;22.26;51.33
74975;BME280;64061;50.836;19.138;2022-12-07T10:53:48;97888.66;;;22.32;51.07
74975;BME280;64061;50.836;19.138;2022-12-07T10:57:19;97879.78;;;22.35;51.01
74975;BME280;64061;50.836;19.138;2022-12-07T11:00:37;97878.78;;;22.31;51.33
74975;BME280;64061;50.836;19.138;2022-12-07T11:07:41;97870.56;;;22.31;50.83
74975;BME280;64061;50.836;19.138;2022-12-07T11:11:03;97884.59;;;22.30;50.45
74975;BME280;64061;50.836;19.138;2022-12-07T11:14:21;97877.97;;;22.31;50.30
74975;BME280;64061;50.836;19.138;2022-12-07T11:17:36;97864.88;;;22.28;50.74
74975;BME280;64061;50.836;19.138;2022-12-07T11:20:56;97858.06;;;22.25;50.05
74975;BME280;64061;50.836;19.138;2022-12-07T11:24:12;97855.19;;;22.22;50.00
74975;BME280;64061;50.836;19.138;2022-12-07T11:27:24;97848.56;;;22.23;49.79
74975;BME280;64061;50.836;19.138;2022-12-07T11:30:42;97850.81;;;22.21;49.96
74975;BME280;64061;50.836;19.138;2022-12-07T11:33:57;97844.81;;;22.19;49.94
74975;BME280;64061;50.836;19.138;2022-12-07T11:37:12;97842.38;;;22.17;49.67
74975;BME280;64061;50.836;19.138;2022-12-07T11:40:26;97842.88;;;22.19;49.84
74975;BME280;64061;50.836;19.138;2022-12-07T11:43:36;97848.19;;;22.16;49.68
74975;BME280;64061;50.836;19.138;2022-12-07T11:46:46;97845.63;;;22.19;49.36
74975;BME280;64061;50.836;19.138;2022-12-07T11:49:54;97846.75;;;22.18;49.50
74975;BME280;64061;50.836;19.138;2022-12-07T11:53:14;97831.72;;;22.24;49.14
74975;BME280;64061;50.836;19.138;2022-12-07T11:56:26;97838.84;;;22.25;48.95
74975;BME280;64061;50.836;19.138;2022-12-07T11:59:35;97824.47;;;22.28;49.21
74975;BME280;64061;50.836;19.138;2022-12-07T12:02:49;97821.41;;;22.30;49.00
74975;BME280;64061;50.836;19.138;2022-12-07T12:05:57;97809.94;;;22.28;48.97
74975;BME280;64061;50.836;19.138;2022-12-07T12:09:05;97812.53;;;22.33;48.79
74975;BME280;64061;50.836;19.138;2022-12-07T12:12:54;97826.09;;;22.38;48.89
74975;BME280;64061;50.836;19.138;2022-12-07T12:20:23;97811.59;;;23.15;45.92
74975;BME280;64061;50.836;19.138;2022-12-07T12:23:38;97810.00;;;24.37;43.77
74975;BME280;64061;50.836;19.138;2022-12-07T12:26:50;97815.28;;;25.13;42.38
74975;BME280;64061;50.836;19.138;2022-12-07T12:30:00;97811.03;;;25.61;41.63
74975;BME280;64061;50.836;19.138;2022-12-07T12:33:13;97804.69;;;25.93;41.14
74975;BME280;64061;50.836;19.138;2022-12-07T12:36:24;97809.41;;;26.17;40.60
74975;BME280;64061;50.836;19.138;2022-12-07T12:39:28;97798.22;;;26.38;40.21
74975;BME280;64061;50.836;19.138;2022-12-07T12:42:43;97795.16;;;26.67;39.90
74975;BME280;64061;50.836;19.138;2022-12-07T12:50:16;97791.34;;;27.12;39.14
74975;BME280;64061;50.836;19.138;2022-12-07T12:53:23;97793.81;;;27.29;39.01
74975;BME280;64061;50.836;19.138;2022-12-07T12:56:36;97774.44;;;27.45;38.87
74975;BME280;64061;50.836;19.138;2022-12-07T12:59:56;97782.22;;;27.39;38.59
74975;BME280;64061;50.836;19.138;2022-12-07T13:03:03;97780.50;;;27.35;38.85
74975;BME280;64061;50.836;19.138;2022-12-07T13:06:19;97782.47;;;27.34;39.28
74975;BME280;64061;50.836;19.138;2022-12-07T13:09:35;97773.34;;;27.33;38.99
74975;BME280;64061;50.836;19.138;2022-12-07T13:12:39;97779.78;;;27.38;39.46
74975;BME280;64061;50.836;19.138;2022-12-07T13:15:46;97775.06;;;27.38;39.61
74975;BME280;64061;50.836;19.138;2022-12-07T13:18:52;97778.19;;;27.37;39.34
74975;BME280;64061;50.836;19.138;2022-12-07T13:21:56;97781.31;;;27.35;39.68
74975;BME280;64061;50.836;19.138;2022-12-07T13:25:03;97788.91;;;27.38;39.62
74975;BME280;64061;50.836;19.138;2022-12-07T13:28:15;97795.25;;;27.39;39.28
74975;BME280;64061;50.836;19.138;2022-12-07T13:31:30;97787.41;;;27.41;39.27
74975;BME280;64061;50.836;19.138;2022-12-07T13:34:40;97783.81;;;27.40;39.43
74975;BME280;64061;50.836;19.138;2022-12-07T13:37:45;97796.53;;;27.41;39.22
74975;BME280;64061;50.836;19.138;2022-12-07T13:41:20;97795.13;;;27.63;38.93
74975;BME280;64061;50.836;19.138;2022-12-07T13:44:26;97787.44;;;27.88;38.58
74975;BME280;64061;50.836;19.138;2022-12-07T13:47:35;97804.97;;;27.92;38.63
74975;BME280;64061;50.836;19.138;2022-12-07T13:50:52;97809.72;;;27.91;38.54
74975;BME280;64061;50.836;19.138;2022-12-07T13:54:00;97809.47;;;27.81;38.90
74975;BME280;64061;50.836;19.138;2022-12-07T13:57:11;97810.88;;;27.75;39.21
74975;BME280;64061;50.836;19.138;2022-12-07T14:00:17;97811.00;;;27.50;39.54
74975;BME280;64061;50.836;19.138;2022-12-07T14:03:30;97818.56;;;27.38;39.34
74975;BME280;64061;50.836;19.138;2022-12-07T14:06:47;97808.75;;;27.40;39.13
74975;BME280;64061;50.836;19.138;2022-12-07T14:09:57;97821.00;;;27.39;39.02
74975;BME280;64061;50.836;19.138;2022-12-07T14:13:21;97821.81;;;27.12;39.66
74975;BME280;64061;50.836;19.138;2022-12-07T14:16:32;97823.03;;;26.86;39.91
74975;BME280;64061;50.836;19.138;2022-12-07T14:19:52;97816.72;;;26.74;40.08
74975;BME280;64061;50.836;19.138;2022-12-07T14:22:59;97814.00;;;26.61;40.47
74975;BME280;64061;50.836;19.138;2022-12-07T14:26:12;97820.44;;;26.53;40.57
74975;BME280;64061;50.836;19.138;2022-12-07T14:29:32;97820.78;;;26.52;40.36
74975;BME280;64061;50.836;19.138;2022-12-07T14:32:37;97825.78;;;26.46;40.68
74975;BME280;64061;50.836;19.138;2022-12-07T14:35:41;97832.19;;;26.63;40.40
74975;BME280;64061;50.836;19.138;2022-12-07T14:38:47;97838.25;;;26.80;40.04
74975;BME280;64061;50.836;19.138;2022-12-07T14:41:50;97840.78;;;26.85;39.79
74975;BME280;64061;50.836;19.138;2022-12-07T14:44:54;97842.47;;;26.90;40.12
74975;BME280;64061;50.836;19.138;2022-12-07T14:47:57;97846.53;;;26.92;39.43
74975;BME280;64061;50.836;19.138;2022-12-07T14:51:21;97833.75;;;26.88;39.64
74975;BME280;64061;50.836;19.138;2022-12-07T14:54:46;97838.81;;;26.86;39.49
74975;BME280;64061;50.836;19.138;2022-12-07T14:57:50;97828.00;;;26.81;39.65
74975;BME280;64061;50.836;19.138;2022-12-07T15:00:53;97843.09;;;26.83;39.77
74975;BME280;64061;50.836;19.138;2022-12-07T15:03:57;97832.94;;;26.87;39.97
74975;BME280;64061;50.836;19.138;2022-12-07T15:07:02;97836.97;;;27.02;39.73
74975;BME280;64061;50.836;19.138;2022-12-07T15:10:16;97833.41;;;27.45;39.03
74975;BME280;64061;50.836;19.138;2022-12-07T15:13:25;97830.91;;;27.68;38.88
74975;BME280;64061;50.836;19.138;2022-12-07T15:16:47;97838.50;;;27.87;38.36
74975;BME280;64061;50.836;19.138;2022-12-07T15:20:12;97833.78;;;28.03;38.26
74975;BME280;64061;50.836;19.138;2022-12-07T15:23:19;97837.25;;;28.16;38.17
74975;BME280;64061;50.836;19.138;2022-12-07T15:26:23;97832.53;;;28.32;37.40
74975;BME280;64061;50.836;19.138;2022-12-07T15:29:27;97832.78;;;28.43;37.58
74975;BME280;64061;50.836;19.138;2022-12-07T15:32:30;97826.22;;;28.51;37.57
74975;BME280;64061;50.836;19.138;2022-12-07T15:35:38;97828.91;;;28.63;36.67
74975;BME280;64061;50.836;19.138;2022-12-07T15:38:42;97825.00;;;28.67;36.96
74975;BME280;64061;50.836;19.138;2022-12-07T15:42:07;97823.94;;;28.72;36.43
74975;BME280;64061;50.836;19.138;2022-12-07T15:45:10;97831.94;;;28.77;36.49
74975;BME280;64061;50.836;19.138;2022-12-07T15:48:15;97832.16;;;28.84;36.47
74975;BME280;64061;50.836;19.138;2022-12-07T15:51:29;97830.63;;;28.87;36.16
74975;BME280;64061;50.836;19.138;2022-12-07T15:54:33;97827.84;;;28.87;35.43
74975;BME280;64061;50.836;19.138;2022-12-07T15:57:39;97830.28;;;28.88;35.81
74975;BME280;64061;50.836;19.138;2022-12-07T16:00:43;97842.53;;;28.87;35.46
74975;BME280;64061;50.836;19.138;2022-12-07T16:03:46;97836.25;;;28.90;35.43
74975;BME280;64061;50.836;19.138;2022-12-07T16:06:50;97834.34;;;28.94;35.06
74975;BME280;64061;50.836;19.138;2022-12-07T16:09:53;97826.47;;;28.96;35.42
74975;BME280;64061;50.836;19.138;2022-12-07T16:12:58;97829.59;;;28.95;35.61
74975;BME280;64061;50.836;19.138;2022-12-07T16:16:03;97823.56;;;28.89;35.54
74975;BME280;64061;50.836;19.138;2022-12-07T16:19:07;97810.38;;;28.86;35.11
74975;BME280;64061;50.836;19.138;2022-12-07T16:22:12;97824.53;;;28.81;35.29
74975;BME280;64061;50.836;19.138;2022-12-07T16:25:16;97830.53;;;28.83;34.84
74975;BME280;64061;50.836;19.138;2022-12-07T16:28:20;97835.31;;;29.02;34.93
74975;BME280;64061;50.836;19.138;2022-12-07T16:31:25;97821.34;;;29.18;34.40
74975;BME280;64061;50.836;19.138;2022-12-07T16:34:30;97824.84;;;29.34;34.21
74975;BME280;64061;50.836;19.138;2022-12-07T16:37:34;97830.25;;;29.46;34.34
74975;BME280;64061;50.836;19.138;2022-12-07T16:40:38;97834.47;;;29.59;33.54
74975;BME280;64061;50.836;19.138;2022-12-07T16:43:43;97839.06;;;29.71;33.63